createdAt,value
2023-04-16T00:02:41.059Z,51.56
2023-04-16T00:05:45.729Z,52.69
2023-04-16T00:08:51.208Z,50.94
2023-04-16T00:11:55.807Z,49.54
2023-04-16T00:15:00.050Z,49.95
2023-04-16T00:18:04.528Z,49.04
2023-04-16T00:21:09.197Z,47.32
2023-04-16T00:24:13.866Z,46.55
2023-04-16T00:27:18.380Z,47.35
2023-04-16T00:30:22.494Z,47.16
2023-04-16T00:33:26.339Z,47.31
2023-04-16T00:36:30.556Z,47.13
2023-04-16T00:39:34.464Z,45.92
2023-04-16T00:42:50.446Z,45.96
2023-04-16T00:45:58.427Z,45.59
2023-04-16T00:49:04.630Z,45.59
2023-04-16T00:52:09.055Z,44.89
2023-04-16T00:55:14.287Z,43.43
2023-04-16T00:58:19.703Z,42.82
2023-04-16T01:01:24.969Z,41.91
2023-04-16T01:04:31.717Z,41.38
2023-04-16T01:07:35.796Z,41.08
2023-04-16T01:10:40.297Z,39.40
2023-04-16T01:13:44.448Z,39.10
2023-04-16T01:16:48.360Z,39.16
2023-04-16T01:19:52.680Z,38.89
2023-04-16T01:22:56.840Z,38.26
2023-04-16T01:26:02.323Z,37.13
2023-04-16T01:29:06.546Z,35.05
2023-04-16T01:32:10.903Z,37.45
2023-04-16T01:35:19.189Z,37.51
2023-04-16T01:38:23.265Z,37.28
2023-04-16T01:41:27.846Z,36.70
2023-04-16T01:44:34.178Z,36.07
2023-04-16T01:47:38.727Z,35.81
2023-04-16T01:50:43.351Z,36.23
2023-04-16T01:53:47.591Z,36.49
2023-04-16T01:56:52.117Z,36.46
2023-04-16T01:59:56.471Z,35.26
2023-04-16T02:03:00.574Z,36.85
2023-04-16T02:06:06.440Z,37.16
2023-04-16T02:09:13.473Z,36.86
2023-04-16T02:12:18.384Z,36.52
2023-04-16T02:15:25.932Z,37.05
2023-04-16T02:18:31.674Z,37.08
2023-04-16T02:21:36.663Z,36.40
2023-04-16T02:24:41.775Z,36.68
2023-04-16T02:27:47.257Z,36.71
2023-04-16T02:31:01.868Z,38.06
2023-04-16T02:34:13.594Z,38.15
2023-04-16T02:37:18.116Z,37.73
2023-04-16T02:40:22.641Z,36.85
2023-04-16T02:43:26.764Z,35.67
2023-04-16T02:46:30.922Z,35.11
2023-04-16T02:49:36.559Z,36.66
2023-04-16T02:52:40.759Z,36.00
2023-04-16T02:55:55.222Z,37.62
2023-04-16T02:59:01.266Z,37.13
2023-04-16T03:02:06.146Z,38.60
2023-04-16T03:05:11.523Z,38.53
2023-04-16T03:08:16.373Z,37.47
2023-04-16T03:11:21.049Z,36.78
2023-04-16T03:14:25.489Z,37.34
2023-04-16T03:17:30.386Z,37.72
2023-04-16T03:20:34.761Z,37.27
2023-04-16T03:23:40.603Z,38.75
2023-04-16T03:26:44.948Z,38.99
2023-04-16T03:29:50.001Z,38.37
2023-04-16T03:32:54.131Z,37.03
2023-04-16T03:35:59.191Z,36.93
2023-04-16T03:39:07.194Z,37.42
2023-04-16T03:42:14.291Z,36.90
2023-04-16T03:45:18.584Z,37.34
2023-04-16T03:48:25.583Z,36.92
2023-04-16T03:51:30.958Z,37.90
2023-04-16T03:54:35.293Z,37.47
2023-04-16T03:57:51.692Z,37.43
2023-04-16T04:00:58.687Z,38.43
2023-04-16T04:04:03.565Z,37.80
2023-04-16T04:07:07.902Z,37.17
2023-04-16T04:10:12.315Z,37.36
2023-04-16T04:13:18.971Z,37.91
2023-04-16T04:16:25.062Z,37.22
2023-04-16T04:19:29.430Z,37.41
2023-04-16T04:22:36.177Z,37.02
2023-04-16T04:25:40.543Z,36.64
2023-04-16T04:28:45.529Z,35.83
2023-04-16T04:31:49.463Z,35.21
2023-04-16T04:34:53.786Z,34.53
2023-04-16T04:37:58.531Z,35.97
2023-04-16T04:41:04.039Z,35.75
2023-04-16T04:44:12.858Z,35.40
2023-04-16T04:47:18.295Z,35.60
2023-04-16T04:50:22.891Z,35.47
2023-04-16T04:53:27.139Z,35.15
2023-04-16T04:56:32.404Z,34.84
2023-04-16T04:59:37.261Z,34.83
2023-04-16T05:02:41.871Z,34.88
2023-04-16T05:05:46.653Z,35.05
2023-04-16T05:08:51.225Z,35.26
2023-04-16T05:11:55.700Z,34.92
2023-04-16T05:14:59.778Z,34.91
2023-04-16T05:18:04.189Z,35.93
2023-04-16T05:21:08.267Z,36.04
2023-04-16T05:24:14.780Z,34.85
2023-04-16T05:27:19.495Z,35.63
2023-04-16T05:30:24.294Z,36.73
2023-04-16T05:33:28.300Z,36.65
2023-04-16T05:36:32.760Z,36.68
2023-04-16T05:39:37.300Z,35.88
2023-04-16T05:42:43.792Z,36.56
2023-04-16T05:45:48.787Z,36.89
2023-04-16T05:48:53.227Z,37.08
2023-04-16T05:51:57.296Z,36.68
2023-04-16T05:55:03.796Z,36.75
2023-04-16T05:58:07.999Z,36.60
2023-04-16T06:01:12.863Z,37.06
2023-04-16T06:04:18.606Z,37.12
2023-04-16T06:07:23.260Z,37.03
2023-04-16T06:10:27.800Z,37.10
2023-04-16T06:13:32.422Z,37.41
2023-04-16T06:16:36.702Z,37.98
2023-04-16T06:19:41.644Z,37.95
2023-04-16T06:22:45.816Z,38.38
2023-04-16T06:25:50.256Z,38.65
2023-04-16T06:28:54.623Z,39.41
2023-04-16T06:31:59.103Z,39.64
2023-04-16T06:35:03.757Z,39.26
2023-04-16T06:38:08.209Z,39.63
2023-04-16T06:41:12.576Z,39.62
2023-04-16T06:44:20.767Z,39.96
2023-04-16T06:47:25.364Z,40.01
2023-04-16T06:50:29.817Z,39.72
2023-04-16T06:53:34.487Z,39.71
2023-04-16T06:56:38.919Z,39.72
2023-04-16T06:59:43.729Z,39.13
2023-04-16T07:02:48.684Z,39.10
2023-04-16T07:05:53.365Z,38.92
2023-04-16T07:08:58.957Z,38.47
2023-04-16T07:12:04.876Z,38.62
2023-04-16T07:15:12.403Z,38.40
2023-04-16T07:18:18.376Z,38.62
2023-04-16T07:21:24.075Z,38.48
2023-04-16T07:24:29.024Z,38.35
2023-04-16T07:27:33.622Z,37.60
2023-04-16T07:30:38.441Z,37.22
2023-04-16T07:33:43.179Z,36.68
2023-04-16T07:36:47.741Z,36.77
2023-04-16T07:39:54.112Z,36.70
2023-04-16T07:42:59.614Z,36.90
2023-04-16T07:46:04.130Z,37.02
2023-04-16T07:49:08.801Z,37.35
2023-04-16T07:52:13.957Z,36.43
2023-04-16T07:55:18.146Z,36.08
2023-04-16T07:58:22.482Z,36.67
2023-04-16T08:01:27.142Z,36.71
2023-04-16T08:04:31.908Z,36.66
2023-04-16T08:07:36.799Z,36.97
2023-04-16T08:10:41.589Z,36.81
2023-04-16T08:13:46.205Z,37.08
2023-04-16T08:16:51.164Z,36.96
2023-04-16T08:19:55.770Z,37.23
2023-04-16T08:23:00.477Z,37.16
2023-04-16T08:26:04.937Z,37.65
2023-04-16T08:29:09.582Z,37.32
2023-04-16T08:32:14.712Z,37.66
2023-04-16T08:35:19.420Z,37.81
2023-04-16T08:38:23.492Z,38.03
2023-04-16T08:41:30.745Z,37.54
2023-04-16T08:44:45.456Z,37.81
2023-04-16T08:47:52.523Z,38.71
2023-04-16T08:50:57.715Z,38.20
2023-04-16T08:54:06.708Z,38.17
2023-04-16T08:57:13.773Z,38.36
2023-04-16T09:00:20.841Z,38.83
2023-04-16T09:03:26.114Z,38.71
2023-04-16T09:06:30.716Z,39.06
2023-04-16T09:09:34.707Z,39.34
2023-04-16T09:12:39.507Z,40.20
2023-04-16T09:15:45.247Z,40.36
2023-04-16T09:18:49.409Z,40.40
2023-04-16T09:21:53.695Z,40.54
2023-04-16T09:24:58.181Z,40.21
2023-04-16T09:28:02.724Z,40.73
2023-04-16T09:31:20.280Z,41.09
2023-04-16T09:34:25.920Z,41.76
2023-04-16T09:37:32.312Z,41.56
2023-04-16T09:40:37.463Z,41.44
2023-04-16T09:43:42.070Z,41.83
2023-04-16T09:46:46.700Z,41.93
2023-04-16T09:49:50.799Z,41.85
2023-04-16T09:52:54.886Z,41.85
2023-04-16T09:56:07.878Z,42.49
2023-04-16T09:59:19.605Z,43.11
2023-04-16T10:02:28.452Z,43.44
2023-04-16T10:05:32.887Z,43.16
2023-04-16T10:08:37.534Z,43.41
2023-04-16T10:11:41.953Z,43.65
2023-04-16T10:14:48.266Z,43.92
2023-04-16T10:17:56.065Z,44.11
2023-04-16T10:21:01.336Z,44.61
2023-04-16T10:24:06.376Z,44.79
2023-04-16T10:27:10.402Z,45.02
2023-04-16T10:30:16.729Z,45.16
2023-04-16T10:33:29.794Z,45.95
2023-04-16T10:36:38.707Z,45.73
2023-04-16T10:39:42.773Z,45.90
2023-04-16T10:42:59.147Z,45.53
2023-04-16T10:46:24.388Z,45.60
2023-04-16T10:49:28.545Z,45.28
2023-04-16T10:52:33.045Z,45.61
2023-04-16T10:55:40.261Z,45.35
2023-04-16T10:58:44.216Z,45.70
2023-04-16T11:01:54.558Z,45.65
2023-04-16T11:04:59.766Z,45.57
2023-04-16T11:08:15.546Z,45.68
2023-04-16T11:11:22.440Z,45.80
2023-04-16T11:14:27.034Z,45.90
2023-04-16T11:17:39.867Z,45.96
2023-04-16T11:20:44.331Z,46.09
2023-04-16T11:23:50.340Z,46.21
2023-04-16T11:26:54.476Z,46.03
2023-04-16T11:30:05.979Z,46.30
2023-04-16T11:33:14.910Z,46.11
2023-04-16T11:36:19.672Z,46.51
2023-04-16T11:39:24.987Z,46.41
2023-04-16T11:42:30.267Z,46.57
2023-04-16T11:45:34.863Z,46.24
2023-04-16T11:48:52.003Z,46.58
2023-04-16T11:51:57.070Z,46.23
2023-04-16T11:55:01.134Z,46.91
2023-04-16T11:58:19.853Z,46.71
2023-04-16T12:01:25.286Z,46.81
2023-04-16T12:04:30.338Z,47.02
2023-04-16T12:07:46.827Z,47.42
2023-04-16T12:10:57.563Z,47.22
2023-04-16T12:14:12.760Z,47.13
2023-04-16T12:17:23.139Z,48.12
2023-04-16T12:20:27.506Z,47.74
2023-04-16T12:23:34.798Z,47.61
2023-04-16T12:26:43.638Z,47.74
2023-04-16T12:30:05.040Z,47.51
2023-04-16T12:33:21.952Z,47.90
2023-04-16T12:36:27.095Z,47.63
2023-04-16T12:39:31.883Z,48.15
2023-04-16T12:42:38.349Z,47.94
2023-04-16T12:45:42.823Z,47.80
2023-04-16T12:48:47.013Z,47.47
2023-04-16T12:51:50.841Z,47.67
2023-04-16T12:54:54.931Z,48.00
2023-04-16T12:57:59.448Z,47.92
2023-04-16T13:01:05.347Z,48.00
2023-04-16T13:04:10.295Z,48.39
2023-04-16T13:07:14.746Z,47.85
2023-04-16T13:10:19.489Z,48.21
2023-04-16T13:13:23.748Z,47.98
2023-04-16T13:16:28.290Z,48.79
2023-04-16T13:19:33.106Z,48.68
2023-04-16T13:22:37.828Z,48.78
2023-04-16T13:25:42.305Z,48.78
2023-04-16T13:28:46.232Z,48.57
2023-04-16T13:31:50.998Z,48.35
2023-04-16T13:34:55.130Z,48.60
2023-04-16T13:41:22.818Z,48.79
2023-04-16T13:44:27.392Z,48.64
2023-04-16T13:47:32.423Z,49.33
2023-04-16T13:50:37.015Z,49.17
2023-04-16T13:53:41.667Z,49.43
2023-04-16T13:56:46.279Z,49.21
2023-04-16T13:59:50.287Z,48.78
2023-04-16T14:02:55.318Z,49.00
2023-04-16T14:05:59.907Z,48.79
2023-04-16T14:09:05.097Z,48.52
2023-04-16T14:12:10.032Z,48.95
2023-04-16T14:15:15.470Z,49.21
2023-04-16T14:18:19.708Z,49.62
2023-04-16T14:21:24.115Z,48.87
2023-04-16T14:24:28.229Z,49.27
2023-04-16T14:27:33.369Z,48.92
2023-04-16T14:30:37.850Z,49.43
2023-04-16T14:33:42.506Z,49.26
2023-04-16T14:36:47.325Z,49.75
2023-04-16T14:39:51.912Z,49.52
2023-04-16T14:42:56.396Z,49.83
2023-04-16T14:46:01.065Z,50.00
2023-04-16T14:49:06.541Z,50.28
2023-04-16T14:52:10.852Z,50.28
2023-04-16T14:55:15.550Z,50.14
2023-04-16T14:58:20.270Z,49.99
2023-04-16T15:01:24.627Z,50.26
2023-04-16T15:04:29.392Z,51.46
2023-04-16T15:07:33.930Z,50.98
2023-04-16T15:10:38.950Z,51.03
2023-04-16T15:13:43.436Z,51.08
2023-04-16T15:16:49.397Z,51.40
2023-04-16T15:19:56.022Z,51.55
2023-04-16T15:23:00.059Z,52.21
2023-04-16T15:26:04.677Z,51.30
2023-04-16T15:29:09.358Z,50.66
2023-04-16T15:32:13.728Z,51.45
2023-04-16T15:35:18.286Z,51.97
2023-04-16T15:38:22.906Z,52.10
2023-04-16T15:41:32.633Z,51.87
2023-04-16T15:44:37.272Z,52.01
2023-04-16T15:47:42.407Z,51.76
2023-04-16T15:50:47.268Z,51.68
2023-04-16T15:53:51.895Z,51.70
2023-04-16T15:56:56.654Z,51.70
2023-04-16T16:00:06.994Z,51.89
2023-04-16T16:03:12.266Z,52.30
2023-04-16T16:06:18.637Z,52.29
2023-04-16T16:09:27.162Z,52.23
2023-04-16T16:12:32.131Z,53.63
2023-04-16T16:15:36.621Z,53.04
2023-04-16T16:18:42.895Z,52.85
2023-04-16T16:21:46.890Z,53.44
2023-04-16T16:24:52.630Z,53.22
2023-04-16T16:27:56.807Z,53.75
2023-04-16T16:31:02.304Z,52.41
2023-04-16T16:34:06.799Z,52.73
2023-04-16T16:37:11.628Z,53.20
2023-04-16T16:40:16.481Z,53.06
2023-04-16T16:43:21.495Z,53.56
2023-04-16T16:46:26.022Z,52.79
2023-04-16T16:49:30.532Z,53.17
2023-04-16T16:52:35.184Z,53.40
2023-04-16T16:55:39.727Z,54.58
2023-04-16T16:58:44.048Z,54.83
2023-04-16T17:01:48.480Z,56.15
2023-04-16T17:04:53.619Z,57.38
2023-04-16T17:07:58.113Z,57.96
2023-04-16T17:11:06.373Z,58.01
2023-04-16T17:14:10.461Z,58.44
2023-04-16T17:17:15.005Z,58.62
2023-04-16T17:20:19.429Z,57.18
2023-04-16T17:23:24.192Z,58.33
2023-04-16T17:26:28.767Z,60.09
2023-04-16T17:29:33.097Z,58.55
2023-04-16T17:32:37.872Z,59.46
2023-04-16T17:35:42.694Z,61.04
2023-04-16T17:38:47.286Z,61.52
2023-04-16T17:41:55.084Z,61.88
2023-04-16T17:44:59.617Z,61.67
2023-04-16T17:48:04.121Z,60.11
2023-04-16T17:51:13.645Z,61.18
2023-04-16T17:54:18.115Z,60.02
2023-04-16T17:57:22.605Z,60.39
2023-04-16T18:00:27.550Z,60.09
2023-04-16T18:03:33.877Z,60.15
2023-04-16T18:06:40.672Z,60.38
2023-04-16T18:09:45.290Z,59.96
2023-04-16T18:12:52.828Z,59.59
2023-04-16T18:15:56.909Z,59.66
2023-04-16T18:19:01.304Z,59.22
2023-04-16T18:22:05.646Z,58.87
2023-04-16T18:25:10.273Z,59.68
2023-04-16T18:28:15.144Z,60.36
2023-04-16T18:31:21.262Z,60.13
2023-04-16T18:34:26.724Z,61.14
2023-04-16T18:37:31.393Z,61.10
2023-04-16T18:40:37.291Z,60.72
2023-04-16T18:43:42.048Z,59.46
2023-04-16T18:46:47.209Z,60.09
2023-04-16T18:49:52.177Z,60.16
2023-04-16T18:52:56.762Z,60.21
2023-04-16T18:56:01.861Z,61.01
2023-04-16T18:59:05.828Z,61.13
2023-04-16T19:02:09.755Z,60.45
2023-04-16T19:05:14.145Z,60.80
2023-04-16T19:08:18.687Z,62.07
2023-04-16T19:11:22.830Z,62.07
2023-04-16T19:14:26.709Z,61.79
2023-04-16T19:17:31.222Z,63.06
2023-04-16T19:20:36.477Z,62.79
2023-04-16T19:23:40.732Z,63.20
2023-04-16T19:26:45.161Z,63.33
2023-04-16T19:29:49.777Z,64.00
2023-04-16T19:32:55.549Z,64.04
2023-04-16T19:35:59.750Z,63.56
2023-04-16T19:39:04.605Z,63.47
2023-04-16T19:42:08.932Z,61.97
2023-04-16T19:45:13.573Z,61.32
2023-04-16T19:48:18.246Z,61.30
2023-04-16T19:51:22.715Z,61.37
2023-04-16T19:54:27.954Z,61.77
2023-04-16T19:57:32.337Z,62.45
2023-04-16T20:00:44.036Z,64.33
2023-04-16T20:03:48.715Z,64.25
2023-04-16T20:06:53.750Z,65.06
2023-04-16T20:09:58.418Z,64.85
2023-04-16T20:13:02.825Z,66.58
2023-04-16T20:16:10.108Z,66.15
2023-04-16T20:19:17.373Z,67.90
2023-04-16T20:22:21.927Z,66.85
2023-04-16T20:25:27.042Z,66.85
2023-04-16T20:28:31.446Z,67.18
2023-04-16T20:31:35.973Z,67.16
2023-04-16T20:34:41.196Z,67.46
2023-04-16T20:37:45.785Z,67.70
2023-04-16T20:41:07.038Z,66.55
2023-04-16T20:44:18.828Z,66.92
2023-04-16T20:47:24.008Z,66.75
2023-04-16T20:50:28.079Z,67.24
2023-04-16T20:53:34.009Z,68.35
2023-04-16T20:56:38.456Z,68.23
2023-04-16T20:59:42.747Z,67.44
2023-04-16T21:02:47.355Z,66.54
2023-04-16T21:05:56.411Z,66.05
2023-04-16T21:09:01.150Z,66.63
2023-04-16T21:12:06.365Z,67.21
2023-04-16T21:15:11.028Z,66.75
2023-04-16T21:18:15.469Z,66.62
2023-04-16T21:21:20.794Z,65.79
2023-04-16T21:24:25.167Z,67.02
2023-04-16T21:27:29.815Z,66.74
2023-04-16T21:30:34.303Z,66.55
2023-04-16T21:33:38.896Z,66.93
2023-04-16T21:36:42.881Z,66.34
2023-04-16T21:39:48.824Z,65.93
2023-04-16T21:42:53.394Z,64.42
2023-04-16T21:45:57.984Z,64.22
2023-04-16T21:49:02.574Z,63.24
2023-04-16T21:52:06.691Z,62.28
2023-04-16T21:55:10.759Z,61.06
2023-04-16T21:58:15.206Z,61.75
2023-04-16T22:01:22.528Z,61.85
2023-04-16T22:04:37.784Z,59.12
2023-04-16T22:07:42.500Z,59.13
2023-04-16T22:10:46.640Z,58.20
2023-04-16T22:13:51.086Z,57.13
2023-04-16T22:16:55.810Z,56.83
2023-04-16T22:20:01.416Z,56.92
2023-04-16T22:23:07.317Z,55.20
2023-04-16T22:26:13.605Z,54.27
2023-04-16T22:29:18.158Z,51.86
2023-04-16T22:32:22.951Z,52.49
2023-04-16T22:35:27.072Z,50.26
2023-04-16T22:38:31.180Z,50.29
2023-04-16T22:41:36.834Z,49.05
2023-04-16T22:44:41.358Z,48.32
2023-04-16T22:47:46.046Z,45.49
2023-04-16T22:50:51.809Z,43.67
2023-04-16T22:53:55.844Z,43.39
2023-04-16T22:57:00.105Z,43.42
2023-04-16T23:03:23.802Z,45.32
2023-04-16T23:06:28.216Z,43.56
2023-04-16T23:09:33.714Z,43.86
2023-04-16T23:12:38.148Z,44.84
2023-04-16T23:15:44.465Z,44.64
2023-04-16T23:18:49.054Z,46.03
2023-04-16T23:21:53.570Z,44.78
2023-04-16T23:24:58.090Z,43.39
2023-04-16T23:28:02.885Z,42.61
2023-04-16T23:31:07.720Z,43.37
2023-04-16T23:34:12.257Z,42.55
2023-04-16T23:37:16.811Z,41.22
2023-04-16T23:40:21.531Z,43.05
2023-04-16T23:43:26.191Z,42.34
2023-04-16T23:46:30.223Z,41.37
2023-04-16T23:49:34.581Z,40.33
2023-04-16T23:52:39.253Z,39.63
2023-04-16T23:55:43.977Z,38.99
2023-04-16T23:58:48.489Z,39.79
